Time;durP1;ratioP1;P1;durP2;ratioP2;P2;SDS_P1;SDS_P2;PMS_P1;PMS_P2;Temp;Humidity;BMP_temperature;BMP_pressure;BME280_temperature;BME280_humidity;BME280_pressure;Samples;Min_cycle;Max_cycle;Signal;HPM_P1;HPM_P2
2019/06/04 00:02:06;;;;;;;8.5;6.9;;;;;;;;;;;;;
2019/06/04 00:04:38;;;;;;;9.3;7.4;;;;;;;;;;;;;
2019/06/04 00:07:09;;;;;;;8.6;7.5;;;;;;;;;;;;;
2019/06/04 00:09:41;;;;;;;9;7.6;;;;;;;;;;;;;
2019/06/04 00:12:06;;;;;;;8.5;7.3;;;;;;;;;;;;;
2019/06/04 00:14:34;;;;;;;8;6.7;;;;;;;;;;;;;
2019/06/04 00:16:59;;;;;;;9.1;7.2;;;;;;;;;;;;;
2019/06/04 00:19:24;;;;;;;10;6.6;;;;;;;;;;;;;
2019/06/04 00:21:49;;;;;;;10;6.9;;;;;;;;;;;;;
2019/06/04 00:24:16;;;;;;;7.4;6.7;;;;;;;;;;;;;
2019/06/04 00:26:41;;;;;;;8;7.2;;;;;;;;;;;;;
2019/06/04 00:29:07;;;;;;;8.2;7;;;;;;;;;;;;;
2019/06/04 00:31:32;;;;;;;8.5;7.3;;;;;;;;;;;;;
2019/06/04 00:33:59;;;;;;;8.6;7.4;;;;;;;;;;;;;
2019/06/04 00:36:25;;;;;;;8.5;7.3;;;;;;;;;;;;;
2019/06/04 00:38:57;;;;;;;8.8;7.6;;;;;;;;;;;;;
2019/06/04 00:41:22;;;;;;;9.6;8;;;;;;;;;;;;;
2019/06/04 00:43:57;;;;;;;9.5;7.8;;;;;;;;;;;;;
2019/06/04 00:46:26;;;;;;;9.1;8.3;;;;;;;;;;;;;
2019/06/04 00:48:54;;;;;;;9.1;8.1;;;;;;;;;;;;;
2019/06/04 00:51:19;;;;;;;10.3;8.2;;;;;;;;;;;;;
2019/06/04 00:53:46;;;;;;;9.6;8.3;;;;;;;;;;;;;
2019/06/04 00:56:12;;;;;;;9.7;8.2;;;;;;;;;;;;;
2019/06/04 00:58:36;;;;;;;10.7;9.6;;;;;;;;;;;;;
2019/06/04 01:01:02;;;;;;;9.4;8.5;;;;;;;;;;;;;
2019/06/04 01:03:27;;;;;;;10.8;7.9;;;;;;;;;;;;;
2019/06/04 01:05:54;;;;;;;10.5;8;;;;;;;;;;;;;
2019/06/04 01:08:18;;;;;;;11.7;8.8;;;;;;;;;;;;;
2019/06/04 01:10:44;;;;;;;9.4;8.2;;;;;;;;;;;;;
2019/06/04 01:13:09;;;;;;;9.9;8.5;;;;;;;;;;;;;
2019/06/04 01:15:35;;;;;;;10.8;8.6;;;;;;;;;;;;;
2019/06/04 01:18:01;;;;;;;12.6;8.4;;;;;;;;;;;;;
2019/06/04 01:20:26;;;;;;;9.7;8.7;;;;;;;;;;;;;
2019/06/04 01:22:51;;;;;;;9.8;8.3;;;;;;;;;;;;;
2019/06/04 01:25:18;;;;;;;10.2;8.8;;;;;;;;;;;;;
2019/06/04 01:27:43;;;;;;;9.5;8.6;;;;;;;;;;;;;
2019/06/04 01:30:12;;;;;;;9.7;8.7;;;;;;;;;;;;;
2019/06/04 01:32:38;;;;;;;9.4;8.5;;;;;;;;;;;;;
2019/06/04 01:35:02;;;;;;;10.6;8.9;;;;;;;;;;;;;
2019/06/04 01:37:28;;;;;;;14.2;9.7;;;;;;;;;;;;;
2019/06/04 01:39:56;;;;;;;10.4;9.4;;;;;;;;;;;;;
2019/06/04 01:42:20;;;;;;;9.6;8.6;;;;;;;;;;;;;
2019/06/04 01:44:49;;;;;;;9.4;8.4;;;;;;;;;;;;;
2019/06/04 01:47:17;;;;;;;11.4;8.6;;;;;;;;;;;;;
2019/06/04 01:49:42;;;;;;;9;8;;;;;;;;;;;;;
2019/06/04 01:52:13;;;;;;;9.5;8.5;;;;;;;;;;;;;
2019/06/04 01:54:41;;;;;;;8.4;7.6;;;;;;;;;;;;;
2019/06/04 01:57:06;;;;;;;10.2;8.3;;;;;;;;;;;;;
2019/06/04 01:59:34;;;;;;;9;8.1;;;;;;;;;;;;;
2019/06/04 02:01:59;;;;;;;9.5;8.5;;;;;;;;;;;;;
2019/06/04 02:04:25;;;;;;;10.5;8.7;;;;;;;;;;;;;
2019/06/04 02:06:57;;;;;;;9.7;8.7;;;;;;;;;;;;;
2019/06/04 02:09:29;;;;;;;9.8;8.8;;;;;;;;;;;;;
2019/06/04 02:12:01;;;;;;;9.8;8.8;;;;;;;;;;;;;
2019/06/04 02:14:29;;;;;;;9.8;8.8;;;;;;;;;;;;;
2019/06/04 02:16:59;;;;;;;8.9;8;;;;;;;;;;;;;
2019/06/04 02:19:28;;;;;;;9.8;8.8;;;;;;;;;;;;;
2019/06/04 02:21:53;;;;;;;8.9;8.1;;;;;;;;;;;;;
2019/06/04 02:24:19;;;;;;;9.2;8.3;;;;;;;;;;;;;
2019/06/04 02:26:44;;;;;;;9.7;8.7;;;;;;;;;;;;;
2019/06/04 02:29:13;;;;;;;10;9;;;;;;;;;;;;;
2019/06/04 02:31:38;;;;;;;9.8;8.8;;;;;;;;;;;;;
2019/06/04 02:34:05;;;;;;;10;9;;;;;;;;;;;;;
2019/06/04 02:36:30;;;;;;;10.4;9.3;;;;;;;;;;;;;
2019/06/04 02:38:56;;;;;;;10;9;;;;;;;;;;;;;
2019/06/04 02:41:21;;;;;;;9.9;8.6;;;;;;;;;;;;;
2019/06/04 02:43:49;;;;;;;11;9;;;;;;;;;;;;;
2019/06/04 02:46:14;;;;;;;9.4;8.6;;;;;;;;;;;;;
2019/06/04 02:48:43;;;;;;;10.7;8.8;;;;;;;;;;;;;
2019/06/04 02:51:11;;;;;;;10;9.1;;;;;;;;;;;;;
2019/06/04 02:53:36;;;;;;;9.9;9;;;;;;;;;;;;;
2019/06/04 02:56:05;;;;;;;10.7;9.7;;;;;;;;;;;;;
2019/06/04 02:58:33;;;;;;;10.9;9.9;;;;;;;;;;;;;
2019/06/04 03:00:58;;;;;;;12.6;10.3;;;;;;;;;;;;;
2019/06/04 03:03:26;;;;;;;13.4;12;;;;;;;;;;;;;
2019/06/04 03:05:51;;;;;;;12.8;11.2;;;;;;;;;;;;;
2019/06/04 03:08:18;;;;;;;14.2;11.9;;;;;;;;;;;;;
2019/06/04 03:10:43;;;;;;;13.5;12.1;;;;;;;;;;;;;
2019/06/04 03:13:08;;;;;;;13.5;11;;;;;;;;;;;;;
2019/06/04 03:15:34;;;;;;;14.6;11.7;;;;;;;;;;;;;
2019/06/04 03:17:59;;;;;;;13.5;11.7;;;;;;;;;;;;;
2019/06/04 03:20:28;;;;;;;13.3;12;;;;;;;;;;;;;
2019/06/04 03:22:59;;;;;;;12.5;11.2;;;;;;;;;;;;;
2019/06/04 03:25:29;;;;;;;11.2;10.2;;;;;;;;;;;;;
2019/06/04 03:27:54;;;;;;;10.1;9.1;;;;;;;;;;;;;
2019/06/04 03:30:26;;;;;;;11.6;10.5;;;;;;;;;;;;;
2019/06/04 03:32:54;;;;;;;11.8;10.7;;;;;;;;;;;;;
2019/06/04 03:35:19;;;;;;;12;10.8;;;;;;;;;;;;;
2019/06/04 03:37:48;;;;;;;14.1;12;;;;;;;;;;;;;
2019/06/04 03:40:22;;;;;;;16.7;15;;;;;;;;;;;;;
2019/06/04 03:42:55;;;;;;;16.4;14.7;;;;;;;;;;;;;
2019/06/04 03:45:24;;;;;;;19.1;16.6;;;;;;;;;;;;;
2019/06/04 03:47:50;;;;;;;20;17.9;;;;;;;;;;;;;
2019/06/04 03:50:20;;;;;;;19.2;17.2;;;;;;;;;;;;;
2019/06/04 03:52:48;;;;;;;17.7;15.5;;;;;;;;;;;;;
2019/06/04 03:55:13;;;;;;;16.3;14.7;;;;;;;;;;;;;
2019/06/04 03:57:43;;;;;;;13.9;12.4;;;;;;;;;;;;;
2019/06/04 04:02:31;;;;;;;11.1;10.1;;;;;;;14.11;94.54785;958.4274;;;;
2019/06/04 04:05:03;;;;;;;12.1;9.7;;;;;;;14.13;94.21484;958.4763;;;;
2019/06/04 04:07:31;;;;;;;11;9.1;;;;;;;14.15;94.30176;958.495;;;;
2019/06/04 04:10:02;;;;;;;9.7;8.7;;;;;;;14.22;93.65234;958.5343;;;;
2019/06/04 04:12:52;;;;;;;9.6;8.7;;;;;;;14.25;93.29883;958.5214;;;;
2019/06/04 04:15:32;;;;;;;10.2;8.5;;;;;;;14.35;92.75879;958.4758;;;;
2019/06/04 04:18:12;;;;;;;8.7;7.8;;;;;;;14.43;92.5918;958.5038;;;;
2019/06/04 04:20:52;;;;;;;8.8;7.9;;;;;;;14.54;91.94141;958.5209;;;;
2019/06/04 04:23:19;;;;;;;9.6;7.8;;;;;;;14.55;91.30078;958.4426;;;;
2019/06/04 04:25:45;;;;;;;8.9;7.3;;;;;;;14.61;91.14063;958.456;;;;
2019/06/04 04:28:10;;;;;;;8;6.9;;;;;;;14.72;90.5459;958.5238;;;;
2019/06/04 04:30:35;;;;;;;7.9;6.9;;;;;;;14.85;89.6416;958.4691;;;;
2019/06/04 04:33:11;;;;;;;7.8;6.7;;;;;;;14.91;89.28906;958.5227;;;;
2019/06/04 04:35:45;;;;;;;9.4;7.1;;;;;;;14.86;89.50195;958.5195;;;;
2019/06/04 04:38:12;;;;;;;6.9;6.3;;;;;;;14.91;89.2793;958.5139;;;;
2019/06/04 04:40:41;;;;;;;7.5;5.8;;;;;;;14.98;88.75586;958.4836;;;;
2019/06/04 04:43:13;;;;;;;6.4;5.8;;;;;;;15.01;88.28516;958.5353;;;;
2019/06/04 04:45:44;;;;;;;7.7;6;;;;;;;15.07;88.17969;958.5156;;;;
2019/06/04 04:48:17;;;;;;;6.2;5.6;;;;;;;15.14;87.57715;958.5359;;;;
2019/06/04 04:50:43;;;;;;;13.6;6.3;;;;;;;15.13;87.50391;958.5851;;;;
2019/06/04 04:53:19;;;;;;;6.7;6;;;;;;;15.17;87.63965;958.5933;;;;
2019/06/04 04:55:44;;;;;;;6.5;5.9;;;;;;;15.21;87.4502;958.5836;;;;
2019/06/04 04:58:12;;;;;;;6.5;5.6;;;;;;;15.28;87.11426;958.5184;;;;
2019/06/04 05:00:43;;;;;;;7.6;6.9;;;;;;;15.35;86.95508;958.5394;;;;
2019/06/04 05:03:15;;;;;;;6.9;5.9;;;;;;;15.59;85.58887;958.4836;;;;
2019/06/04 05:05:44;;;;;;;8.2;5.7;;;;;;;15.61;85.52051;958.5073;;;;
2019/06/04 05:08:09;;;;;;;7;6;;;;;;;15.7;85.20117;958.478;;;;
2019/06/04 05:10:34;;;;;;;7.4;6;;;;;;;15.83;84.43359;958.5129;;;;
2019/06/04 05:13:07;;;;;;;7.3;6.2;;;;;;;15.88;85.01465;958.4722;;;;
2019/06/04 05:15:36;;;;;;;7.2;6.2;;;;;;;15.91;84.79785;958.5328;;;;
2019/06/04 05:20:22;;;;;;;7;6.3;;;;;;;16.02;84.81836;958.6222;;;;
2019/06/04 05:22:52;;;;;;;7.3;5.7;;;;;;;16.14;83.62891;958.6362;;;;
2019/06/04 05:25:25;;;;;;;9.6;6.3;;;;;;;16.23;83.0127;958.5905;;;;
2019/06/04 05:27:50;;;;;;;8.8;5.7;;;;;;;16.34;83.1748;958.688;;;;
2019/06/04 05:30:20;;;;;;;9.6;6;;;;;;;16.46;82.60059;958.6856;;;;
2019/06/04 05:32:48;;;;;;;10.6;5.4;;;;;;;16.36;83.24902;958.6808;;;;
2019/06/04 05:35:20;;;;;;;8.8;5.3;;;;;;;16.51;81.45313;958.6918;;;;
2019/06/04 05:37:51;;;;;;;8.8;4.7;;;;;;;16.53;81.0127;958.7274;;;;
2019/06/04 05:40:25;;;;;;;12.2;5.4;;;;;;;16.72;80.67188;958.7936;;;;
2019/06/04 05:43:02;;;;;;;7.4;4.8;;;;;;;16.92;79.84277;958.7886;;;;
2019/06/04 05:45:32;;;;;;;6;4.8;;;;;;;17.08;78.99414;958.8019;;;;
2019/06/04 05:47:59;;;;;;;5.9;5.1;;;;;;;17.11;78.75098;958.8287;;;;
2019/06/04 05:50:29;;;;;;;6.2;4.6;;;;;;;17.34;76.8125;958.785;;;;
2019/06/04 05:53:03;;;;;;;9.5;5;;;;;;;17.35;77.12012;958.7742;;;;
2019/06/04 05:55:29;;;;;;;7.4;4.4;;;;;;;17.36;77.21484;958.7253;;;;
2019/06/04 05:57:57;;;;;;;5.5;4.4;;;;;;;17.54;76.98828;958.7275;;;;
2019/06/04 06:00:22;;;;;;;9.6;4.4;;;;;;;17.59;76.66797;958.6953;;;;
2019/06/04 06:02:49;;;;;;;9;4.8;;;;;;;17.67;75.16895;958.671;;;;
2019/06/04 06:05:26;;;;;;;10.4;4.2;;;;;;;17.85;75.43555;958.6254;;;;
2019/06/04 06:07:58;;;;;;;9.4;4.1;;;;;;;17.96;74.9375;958.6145;;;;
2019/06/04 06:10:28;;;;;;;6.1;4.1;;;;;;;18.14;73.18359;958.6461;;;;
2019/06/04 06:13:07;;;;;;;4.3;3.7;;;;;;;18.16;71.71875;958.6042;;;;
2019/06/04 06:15:32;;;;;;;8.7;3.3;;;;;;;18.3;72.03613;958.6498;;;;
2019/06/04 06:18:13;;;;;;;5;3.6;;;;;;;18.59;70.94238;958.7299;;;;
2019/06/04 06:20:44;;;;;;;4.9;3.7;;;;;;;18.53;72.0625;958.7335;;;;
2019/06/04 06:23:16;;;;;;;5;3.4;;;;;;;18.64;72.38574;958.6239;;;;
2019/06/04 06:25:49;;;;;;;5;3.5;;;;;;;18.72;72.15137;958.6691;;;;
2019/06/04 06:28:14;;;;;;;3.6;3.3;;;;;;;18.88;70.88379;958.6895;;;;
2019/06/04 06:30:41;;;;;;;4.8;3.3;;;;;;;18.88;71.48438;958.7064;;;;
2019/06/04 06:33:08;;;;;;;4.5;3.3;;;;;;;19.1;70.70801;958.671;;;;
2019/06/04 06:35:36;;;;;;;5.3;3.2;;;;;;;19.16;69.49414;958.6064;;;;
2019/06/04 06:38:03;;;;;;;5.1;3.3;;;;;;;19.13;70.14941;958.6668;;;;
2019/06/04 06:40:34;;;;;;;3.5;3.2;;;;;;;19.2;69.41602;958.597;;;;
2019/06/04 06:43:02;;;;;;;3.9;2.8;;;;;;;19.19;70.83984;958.5424;;;;
2019/06/04 06:45:27;;;;;;;3.5;3.2;;;;;;;19.32;69.6709;958.6277;;;;
2019/06/04 06:47:56;;;;;;;3;2.7;;;;;;;19.4;70.7207;958.5936;;;;
2019/06/04 06:50:30;;;;;;;3;2.7;;;;;;;19.82;69.03125;958.5681;;;;
2019/06/04 06:52:58;;;;;;;3.4;2.9;;;;;;;19.85;68.70605;958.5988;;;;
2019/06/04 06:55:28;;;;;;;2.8;2.5;;;;;;;19.69;69.55371;958.6478;;;;
2019/06/04 06:58:00;;;;;;;3.3;2.8;;;;;;;19.71;70.05176;958.6108;;;;
2019/06/04 07:00:26;;;;;;;3.6;2.9;;;;;;;19.73;68.23926;958.6683;;;;
2019/06/04 07:02:51;;;;;;;4.1;2.8;;;;;;;20.03;68.77051;958.6122;;;;
2019/06/04 07:05:20;;;;;;;2.9;2.6;;;;;;;20;67.64453;958.6594;;;;
2019/06/04 07:07:48;;;;;;;4.4;2.8;;;;;;;20.08;68.4834;958.5692;;;;
2019/06/04 07:10:18;;;;;;;4.6;2.8;;;;;;;20.24;67.0918;958.5639;;;;
2019/06/04 07:12:46;;;;;;;4.2;2.6;;;;;;;20.51;65.42188;958.5366;;;;
2019/06/04 07:15:11;;;;;;;5;2.6;;;;;;;20.44;66.1416;958.5084;;;;
2019/06/04 07:17:41;;;;;;;5;2.7;;;;;;;20.58;65.33691;958.5144;;;;
2019/06/04 07:20:19;;;;;;;3.5;2.6;;;;;;;20.69;66.09668;958.5364;;;;
2019/06/04 07:22:45;;;;;;;3.6;2.7;;;;;;;20.56;64.93164;958.5609;;;;
2019/06/04 07:25:09;;;;;;;4.5;2.9;;;;;;;20.61;65.65918;958.5438;;;;
2019/06/04 07:27:41;;;;;;;4.7;2.7;;;;;;;20.77;66.72266;958.533;;;;
2019/06/04 07:30:21;;;;;;;4.3;2.7;;;;;;;20.91;65.31445;958.4864;;;;
2019/06/04 07:32:52;;;;;;;4.2;2.6;;;;;;;21.13;65.38184;958.5101;;;;
2019/06/04 07:35:19;;;;;;;3.9;2.6;;;;;;;21.32;64.15723;958.4725;;;;
2019/06/04 07:37:52;;;;;;;5.7;2.8;;;;;;;21.4;63.96777;958.4467;;;;
2019/06/04 07:40:23;;;;;;;4.9;2.8;;;;;;;21.47;63.6582;958.4542;;;;
2019/06/04 07:42:55;;;;;;;5.7;3.1;;;;;;;21.22;64.8877;958.3702;;;;
2019/06/04 07:45:29;;;;;;;3.8;3;;;;;;;21.48;65.49219;958.3661;;;;
2019/06/04 07:47:54;;;;;;;7.8;3.8;;;;;;;21.71;63.94043;958.3141;;;;
2019/06/04 07:50:28;;;;;;;5.8;3;;;;;;;21.8;63.82422;958.2908;;;;
2019/06/04 07:53:01;;;;;;;6;4.4;;;;;;;22.1;61.87793;958.2787;;;;
2019/06/04 07:55:37;;;;;;;4.5;3.2;;;;;;;22.09;57.7998;958.3373;;;;
2019/06/04 07:58:03;;;;;;;4.7;2.4;;;;;;;22.25;57.45313;958.3085;;;;
2019/06/04 08:00:32;;;;;;;3.7;2.2;;;;;;;22.26;57.98828;958.3152;;;;
2019/06/04 08:03:06;;;;;;;4.9;2.8;;;;;;;22.46;59.4375;958.3364;;;;
2019/06/04 08:05:33;;;;;;;3.1;2.5;;;;;;;22.27;58.3457;958.296;;;;
2019/06/04 08:08:07;;;;;;;3.7;2.5;;;;;;;22.45;59.19824;958.3128;;;;
2019/06/04 08:10:32;;;;;;;3.2;2.5;;;;;;;22.75;59.39355;958.2817;;;;
2019/06/04 08:12:58;;;;;;;4.3;2.7;;;;;;;22.89;58.03516;958.2511;;;;
2019/06/04 08:15:40;;;;;;;5.7;2.5;;;;;;;22.98;56.61035;958.2587;;;;
2019/06/04 08:18:08;;;;;;;3.1;2.5;;;;;;;22.9;57.19336;958.1846;;;;
2019/06/04 08:20:43;;;;;;;3.1;2.4;;;;;;;23.13;57.53125;958.1663;;;;
2019/06/04 08:23:08;;;;;;;4.2;2.6;;;;;;;23.06;56.22754;958.1379;;;;
2019/06/04 08:25:33;;;;;;;3.2;2.2;;;;;;;23.39;56.81738;958.1456;;;;
2019/06/04 08:28:01;;;;;;;4;2.2;;;;;;;23.59;54.90527;958.1434;;;;
2019/06/04 08:30:28;;;;;;;3.2;2.3;;;;;;;23.65;53.37891;958.1602;;;;
2019/06/04 08:32:54;;;;;;;2.4;2.2;;;;;;;23.83;53.7207;958.0584;;;;
2019/06/04 08:35:27;;;;;;;6;2.5;;;;;;;23.86;52.79785;958.0261;;;;
2019/06/04 08:37:57;;;;;;;2.4;2.1;;;;;;;23.84;51.56934;958.0258;;;;
2019/06/04 08:40:27;;;;;;;3.3;2.3;;;;;;;23.75;55.31836;958.0525;;;;
2019/06/04 08:42:54;;;;;;;4.7;2.6;;;;;;;24.04;54.13965;957.9883;;;;
2019/06/04 08:45:24;;;;;;;9.8;4.8;;;;;;;23.96;53.99805;957.9719;;;;
2019/06/04 08:47:49;;;;;;;6.5;2.5;;;;;;;24.26;53.10645;957.9267;;;;
2019/06/04 08:50:27;;;;;;;3.8;2.3;;;;;;;24.36;53.72559;957.9498;;;;
2019/06/04 08:52:58;;;;;;;3.3;2.3;;;;;;;24.61;51.73047;957.8819;;;;
2019/06/04 08:55:29;;;;;;;7.9;3.3;;;;;;;24.63;49.70703;957.8521;;;;
2019/06/04 08:57:58;;;;;;;104.9;32.9;;;;;;;24.76;51.23535;957.9128;;;;
2019/06/04 09:00:27;;;;;;;106;35.3;;;;;;;24.69;51.63184;957.7855;;;;
2019/06/04 09:02:59;;;;;;;105.7;34.2;;;;;;;24.87;49.97168;957.7639;;;;
2019/06/04 09:05:45;;;;;;;142.7;50.3;;;;;;;24.94;50.25391;957.7878;;;;
2019/06/04 09:08:19;;;;;;;48.5;18.8;;;;;;;25.19;51.43945;957.7981;;;;
2019/06/04 09:11:02;;;;;;;13.8;8.2;;;;;;;25.08;50.91309;957.7427;;;;
2019/06/04 09:13:22;;;;;;;13.2;7.7;;;;;;;25.17;50.56641;957.7403;;;;
2019/06/04 09:16:00;;;;;;;5.9;4.2;;;;;;;25.38;47.86914;957.8272;;;;
2019/06/04 09:18:47;;;;;;;16.3;9.9;;;;;;;25.23;48.91406;957.722;;;;
2019/06/04 09:21:17;;;;;;;18.1;10.1;;;;;;;25.32;49.99805;957.7587;;;;
2019/06/04 09:23:43;;;;;;;2.9;2.3;;;;;;;25.68;46.88574;957.7503;;;;
2019/06/04 09:26:14;;;;;;;2.6;2.2;;;;;;;25.92;48.7998;957.7872;;;;
2019/06/04 09:28:47;;;;;;;3.2;2.3;;;;;;;25.99;49.34375;957.7151;;;;
2019/06/04 09:31:25;;;;;;;3.7;2.2;;;;;;;25.96;50.0459;957.7597;;;;
2019/06/04 09:33:59;;;;;;;3.5;2;;;;;;;26.11;46.67969;957.6845;;;;
2019/06/04 09:36:40;;;;;;;2.6;2;;;;;;;25.81;49.13281;957.6273;;;;
2019/06/04 09:39:05;;;;;;;3;2.2;;;;;;;26.02;47.91406;957.6387;;;;
2019/06/04 09:41:33;;;;;;;4.7;2.4;;;;;;;26.11;48.71289;957.6229;;;;
2019/06/04 09:44:00;;;;;;;4.2;2.4;;;;;;;26.47;49.58887;957.6277;;;;
2019/06/04 09:46:38;;;;;;;4;3.6;;;;;;;26.95;50.70703;957.618;;;;
2019/06/04 09:49:11;;;;;;;4.1;2.4;;;;;;;26.6;49.20801;957.622;;;;
2019/06/04 09:51:42;;;;;;;3.3;2.2;;;;;;;26.8;50.78613;957.6003;;;;
2019/06/04 09:54:10;;;;;;;2.4;2.1;;;;;;;26.82;47.05273;957.6015;;;;
2019/06/04 09:56:50;;;;;;;3.2;2.2;;;;;;;26.34;49.49121;957.557;;;;
2019/06/04 09:59:35;;;;;;;2.7;2.3;;;;;;;27.06;46.22852;957.5754;;;;
2019/06/04 10:02:07;;;;;;;2.6;2.2;;;;;;;26.88;47.85059;957.55;;;;
2019/06/04 10:04:39;;;;;;;2.5;2.1;;;;;;;27.04;49.53223;957.5439;;;;
2019/06/04 10:07:17;;;;;;;2.5;2.3;;;;;;;27.23;48.31934;957.5577;;;;
2019/06/04 10:09:49;;;;;;;2.9;2.4;;;;;;;27.38;47.0166;957.4975;;;;
2019/06/04 10:12:16;;;;;;;4.5;2.1;;;;;;;27.6;45.4082;957.4841;;;;
2019/06/04 10:15:00;;;;;;;3.6;2;;;;;;;27.27;46.20215;957.4299;;;;
2019/06/04 10:17:30;;;;;;;3.2;2.1;;;;;;;27.62;45.51855;957.3708;;;;
2019/06/04 10:20:13;;;;;;;4.5;2.2;;;;;;;28.51;45.52441;957.3102;;;;
2019/06/04 10:22:48;;;;;;;4.4;2;;;;;;;28.2;44.23145;957.2358;;;;
2019/06/04 10:25:39;;;;;;;2.3;2;;;;;;;28.02;41.87207;957.1939;;;;
2019/06/04 10:28:15;;;;;;;3.8;2.1;;;;;;;28.71;43.5127;957.2169;;;;
2019/06/04 10:30:41;;;;;;;3.5;2.2;;;;;;;28.22;42.07129;957.1841;;;;
2019/06/04 10:33:15;;;;;;;3.6;2.1;;;;;;;28.73;40.83301;957.1825;;;;
2019/06/04 10:35:56;;;;;;;2.9;2.3;;;;;;;28.59;42.91211;957.0945;;;;
2019/06/04 10:38:26;;;;;;;3.5;2.4;;;;;;;28.99;43.82813;957.0514;;;;
2019/06/04 10:40:54;;;;;;;3.3;2.1;;;;;;;29.05;41.05469;957.0231;;;;
2019/06/04 10:43:25;;;;;;;4.1;2.6;;;;;;;29.21;41.57422;957.0099;;;;
2019/06/04 10:45:55;;;;;;;4.6;2.5;;;;;;;28.94;41.23633;956.9425;;;;
2019/06/04 10:48:31;;;;;;;2.5;2.2;;;;;;;30.04;39.68457;956.9241;;;;
2019/06/04 10:50:59;;;;;;;2.8;2.5;;;;;;;29.73;42.40527;956.9124;;;;
2019/06/04 10:53:32;;;;;;;2.8;2.5;;;;;;;29.77;39.91504;956.9052;;;;
2019/06/04 10:56:04;;;;;;;2.5;2.3;;;;;;;29.73;39.97266;956.7975;;;;
2019/06/04 10:58:29;;;;;;;4.8;2.4;;;;;;;29.65;40.18164;956.8438;;;;
2019/06/04 11:01:07;;;;;;;3.2;2;;;;;;;29.41;39.38867;956.7184;;;;
2019/06/04 11:03:56;;;;;;;3.3;2.5;;;;;;;29.85;37.27051;956.7363;;;;
2019/06/04 11:06:26;;;;;;;4.2;2.5;;;;;;;29.79;37.44629;956.6948;;;;
2019/06/04 11:08:58;;;;;;;4.2;2.4;;;;;;;30.2;38.27539;956.7539;;;;
2019/06/04 11:11:33;;;;;;;4.3;2.4;;;;;;;29.74;40.8291;956.6772;;;;
2019/06/04 11:14:01;;;;;;;4.3;2.5;;;;;;;29.99;38.125;956.665;;;;
2019/06/04 11:16:33;;;;;;;4.5;3.1;;;;;;;30.04;38.39453;956.6244;;;;
2019/06/04 11:19:02;;;;;;;5.1;2.6;;;;;;;29.67;37.02637;956.5679;;;;
2019/06/04 11:21:42;;;;;;;4.4;2.6;;;;;;;30.13;36.0752;956.6122;;;;
2019/06/04 11:24:35;;;;;;;2.9;2.6;;;;;;;29.93;37.2168;956.541;;;;
2019/06/04 11:27:08;;;;;;;4.4;2.6;;;;;;;29.85;39.13867;956.4802;;;;
2019/06/04 11:29:40;;;;;;;5.4;2.8;;;;;;;29.86;37.36719;956.443;;;;
2019/06/04 11:32:09;;;;;;;3.4;2.6;;;;;;;29.64;38.7832;956.4285;;;;
2019/06/04 11:34:37;;;;;;;3.9;2.9;;;;;;;30.3;39.96191;956.3728;;;;
2019/06/04 11:37:08;;;;;;;4;2.8;;;;;;;31.06;40.04102;956.4279;;;;
2019/06/04 11:39:37;;;;;;;5.4;2.9;;;;;;;30.64;35.81348;956.3645;;;;
2019/06/04 11:42:05;;;;;;;3.5;2.7;;;;;;;30.56;37.57031;956.3583;;;;
2019/06/04 11:44:30;;;;;;;3.8;2.6;;;;;;;31.25;36.69629;956.3201;;;;
2019/06/04 11:47:09;;;;;;;5.7;3.6;;;;;;;31.58;36.80859;956.3163;;;;
2019/06/04 11:49:46;;;;;;;4.6;3;;;;;;;30.23;37.30078;956.2858;;;;
2019/06/04 11:52:14;;;;;;;4.6;2.7;;;;;;;31.72;37.02441;956.2414;;;;
2019/06/04 11:54:47;;;;;;;5.2;3.5;;;;;;;31.62;37.43945;956.199;;;;
2019/06/04 11:57:38;;;;;;;5.5;3;;;;;;;31.45;38.50195;956.1453;;;;
2019/06/04 12:00:04;;;;;;;3.3;2.9;;;;;;;31.79;36.9707;956.1298;;;;
2019/06/04 12:02:30;;;;;;;3.6;2.9;;;;;;;31.94;35.32324;956.0955;;;;
2019/06/04 12:05:17;;;;;;;3.7;2.6;;;;;;;30.91;36.9707;956.0561;;;;
2019/06/04 12:08:15;;;;;;;3.8;2.6;;;;;;;31.46;37.63184;956.002;;;;
2019/06/04 12:10:58;;;;;;;5;2.9;;;;;;;31.08;36.40527;956.0137;;;;
2019/06/04 12:13:43;;;;;;;5.7;3;;;;;;;32.13;36.5498;955.9736;;;;
2019/06/04 12:16:23;;;;;;;5;2.9;;;;;;;31.77;35.08008;955.8469;;;;
2019/06/04 12:18:51;;;;;;;3.7;3.1;;;;;;;31.13;36.28906;955.9199;;;;
2019/06/04 12:21:17;;;;;;;4.5;2.8;;;;;;;32.05;34.79883;955.8978;;;;
2019/06/04 12:23:50;;;;;;;4.9;2.7;;;;;;;31.51;34.89063;955.8723;;;;
2019/06/04 12:26:24;;;;;;;5.2;3.1;;;;;;;32.19;33.98535;955.8875;;;;
2019/06/04 12:28:55;;;;;;;4.5;3;;;;;;;32.26;35.80957;955.8586;;;;
2019/06/04 12:31:28;;;;;;;5.2;3;;;;;;;32.02;33.02832;955.8894;;;;
2019/06/04 12:33:59;;;;;;;3.3;2.8;;;;;;;32.92;32.52344;955.8141;;;;
2019/06/04 12:36:24;;;;;;;3.9;3;;;;;;;32.15;31.29297;955.7798;;;;
2019/06/04 12:39:02;;;;;;;4.1;2.9;;;;;;;32.05;33.92676;955.8038;;;;
2019/06/04 12:41:37;;;;;;;6.6;3;;;;;;;31.76;35.06738;955.7957;;;;
2019/06/04 12:44:04;;;;;;;4.3;3;;;;;;;32.23;35.23633;955.8172;;;;
2019/06/04 12:46:38;;;;;;;5.2;2.7;;;;;;;32.84;32.20313;955.7764;;;;
2019/06/04 12:49:17;;;;;;;4.2;2.7;;;;;;;32.39;35.24902;955.7983;;;;
2019/06/04 12:51:53;;;;;;;4.3;2.9;;;;;;;32.26;33.51855;955.6295;;;;
2019/06/04 12:54:19;;;;;;;3.9;2.7;;;;;;;33.14;31.0332;955.6586;;;;
2019/06/04 12:56:52;;;;;;;4.2;2.8;;;;;;;32.77;32.58594;955.6355;;;;
2019/06/04 12:59:11;;;;;;;4.6;2.8;;;;;;;32.72;33.55176;955.5457;;;;
2019/06/04 13:01:45;;;;;;;2.6;2.4;;;;;;;34.25;29.81934;955.5549;;;;
2019/06/04 13:04:03;;;;;;;3.7;2.9;;;;;;;33.08;29.93652;955.5161;;;;
2019/06/04 13:06:37;;;;;;;3.7;2.9;;;;;;;33.08;32.34082;955.4989;;;;
2019/06/04 13:09:02;;;;;;;3.1;2.5;;;;;;;33.02;29.07129;955.5136;;;;
2019/06/04 13:11:31;;;;;;;3.3;2.7;;;;;;;33.07;30.66406;955.4832;;;;
2019/06/04 13:14:00;;;;;;;4.6;2.6;;;;;;;32.36;29.05371;955.3615;;;;
2019/06/04 13:16:27;;;;;;;3.2;2.2;;;;;;;33.38;28.83887;955.3347;;;;
2019/06/04 13:18:50;;;;;;;3.3;2.6;;;;;;;32.94;31.22559;955.3904;;;;
2019/06/04 13:21:23;;;;;;;4.7;2.8;;;;;;;33.72;30.37988;955.4264;;;;
2019/06/04 13:23:49;;;;;;;5.1;2.9;;;;;;;33.22;31.58594;955.3494;;;;
2019/06/04 13:26:22;;;;;;;3.2;2.9;;;;;;;32.54;31.64746;955.3127;;;;
2019/06/04 13:28:46;;;;;;;5.1;2.9;;;;;;;32.61;31.54297;955.3198;;;;
2019/06/04 13:31:11;;;;;;;4.8;2.9;;;;;;;31.84;33.77734;955.2473;;;;
2019/06/04 13:33:36;;;;;;;3.8;2.8;;;;;;;32.48;33.1709;955.2668;;;;
2019/06/04 13:36:07;;;;;;;4.8;2.8;;;;;;;33.26;29.97266;955.2713;;;;
2019/06/04 13:38:27;;;;;;;3.1;2.8;;;;;;;32.79;28.20703;955.3047;;;;
2019/06/04 13:40:53;;;;;;;5;2.7;;;;;;;33.28;26.29395;955.2531;;;;
2019/06/04 13:43:17;;;;;;;4.4;2.7;;;;;;;32.92;30.16895;955.2402;;;;
2019/06/04 13:45:52;;;;;;;3.7;2.9;;;;;;;33.24;31.2832;955.1511;;;;
2019/06/04 13:48:17;;;;;;;8.5;3.2;;;;;;;32.38;32.375;955.1243;;;;
2019/06/04 13:50:44;;;;;;;3.8;3.3;;;;;;;33.51;29.52734;955.1526;;;;
2019/06/04 13:53:08;;;;;;;3.7;2.7;;;;;;;32.05;31.95215;955.0756;;;;
2019/06/04 13:55:40;;;;;;;3;2.7;;;;;;;32.65;30.55176;955.1132;;;;
2019/06/04 13:58:14;;;;;;;3.5;2.7;;;;;;;32.77;30.74121;955.0406;;;;
2019/06/04 14:00:43;;;;;;;3.3;2.6;;;;;;;33.21;29.66602;955.0344;;;;
2019/06/04 14:03:03;;;;;;;2.9;2.6;;;;;;;32.4;30.78906;955.0173;;;;
2019/06/04 14:05:32;;;;;;;4.4;2.5;;;;;;;32.49;29.11035;954.9871;;;;
2019/06/04 14:08:06;;;;;;;5.6;2.9;;;;;;;32.61;30.16016;955.0377;;;;
2019/06/04 14:10:35;;;;;;;3.1;2.7;;;;;;;32.71;30.61621;955.0117;;;;
2019/06/04 14:13:05;;;;;;;3.7;3.4;;;;;;;32.56;31.59961;954.9029;;;;
2019/06/04 14:15:33;;;;;;;4.6;3;;;;;;;32.59;30.86328;954.9348;;;;
2019/06/04 14:17:58;;;;;;;4.6;2.9;;;;;;;33.05;31.01563;954.8764;;;;
2019/06/04 14:20:24;;;;;;;3.3;2.9;;;;;;;32.69;30.39648;954.8536;;;;
2019/06/04 14:22:50;;;;;;;5.6;2.9;;;;;;;32.39;31.21289;954.818;;;;
2019/06/04 14:25:21;;;;;;;3.7;2.8;;;;;;;32.56;29.7207;954.8499;;;;
2019/06/04 14:27:51;;;;;;;4.5;3.1;;;;;;;32.48;31.1582;954.8655;;;;
2019/06/04 14:30:18;;;;;;;3;2.7;;;;;;;32.02;30.7627;954.7072;;;;
2019/06/04 14:32:42;;;;;;;4.4;3;;;;;;;32.77;29.17578;954.6336;;;;
2019/06/04 14:35:08;;;;;;;4.1;2.9;;;;;;;33.55;29.59082;954.7543;;;;
2019/06/04 14:37:33;;;;;;;4.1;2.9;;;;;;;33.14;30.19531;954.7037;;;;
2019/06/04 14:40:03;;;;;;;3.3;2.9;;;;;;;32.95;30.92285;954.7169;;;;
2019/06/04 14:42:28;;;;;;;5.2;2.8;;;;;;;32.77;30.21973;954.7209;;;;
2019/06/04 14:44:54;;;;;;;2.9;2.6;;;;;;;32.58;30.28027;954.616;;;;
2019/06/04 14:47:21;;;;;;;3.5;2.5;;;;;;;33.97;29.15625;954.6624;;;;
2019/06/04 14:49:47;;;;;;;4.5;2.5;;;;;;;32.99;31.18066;954.6411;;;;
2019/06/04 14:52:12;;;;;;;4;2.6;;;;;;;31.94;30.67383;954.5334;;;;
2019/06/04 14:54:40;;;;;;;2.8;2.4;;;;;;;33.23;30.44434;954.5558;;;;
2019/06/04 14:57:14;;;;;;;4.4;2.6;;;;;;;32.97;30.09961;954.5435;;;;
2019/06/04 14:59:42;;;;;;;4.4;2.8;;;;;;;32.59;30.59473;954.4727;;;;
2019/06/04 15:02:08;;;;;;;2.7;2.4;;;;;;;32.75;29.67285;954.4129;;;;
2019/06/04 15:04:34;;;;;;;2.9;2.6;;;;;;;32.72;30.84668;954.3661;;;;
2019/06/04 15:07:00;;;;;;;4.4;2.8;;;;;;;32.49;30.41992;954.4515;;;;
2019/06/04 15:09:24;;;;;;;8.8;2.7;;;;;;;32.1;31.68945;954.3206;;;;
2019/06/04 15:12:03;;;;;;;2.9;2.6;;;;;;;32.72;29.71875;954.3344;;;;
2019/06/04 15:14:31;;;;;;;5.9;2.7;;;;;;;32.58;30.29199;954.2037;;;;
2019/06/04 15:16:56;;;;;;;2.8;2.6;;;;;;;31.36;31.28711;954.2535;;;;
2019/06/04 15:19:22;;;;;;;2.8;2.6;;;;;;;32.59;30.57227;954.1928;;;;
2019/06/04 15:21:50;;;;;;;4.2;3.1;;;;;;;32.44;29.77344;954.2678;;;;
2019/06/04 15:24:14;;;;;;;3.3;2.5;;;;;;;32.74;29.53809;954.2422;;;;
2019/06/04 15:26:44;;;;;;;3.4;2.7;;;;;;;32.68;28.35742;954.2417;;;;
2019/06/04 15:29:12;;;;;;;5.6;2.9;;;;;;;32.35;30.41016;954.2731;;;;
2019/06/04 15:31:43;;;;;;;5.4;2.7;;;;;;;33.26;28.58887;954.2312;;;;
2019/06/04 15:34:17;;;;;;;3.7;2.8;;;;;;;33.79;28.40234;954.1925;;;;
2019/06/04 15:36:47;;;;;;;6;2.8;;;;;;;32.42;30.20898;954.229;;;;
2019/06/04 15:39:16;;;;;;;3.9;2.8;;;;;;;33.59;29.49609;954.2076;;;;
2019/06/04 15:41:42;;;;;;;6.5;2.9;;;;;;;32.76;30.0127;954.1633;;;;
2019/06/04 15:44:10;;;;;;;3;2.7;;;;;;;32.69;29.60742;954.1457;;;;
2019/06/04 15:46:36;;;;;;;3.4;2.6;;;;;;;32.92;30.3877;954.1078;;;;
2019/06/04 15:49:03;;;;;;;3.3;2.7;;;;;;;32.24;30.46289;954.0926;;;;
2019/06/04 15:51:32;;;;;;;3.6;2.8;;;;;;;31.94;31.64258;954.1099;;;;
2019/06/04 15:53:56;;;;;;;4.2;2.5;;;;;;;31.01;33.03906;954.1066;;;;
2019/06/04 15:56:22;;;;;;;3.9;2.8;;;;;;;32.34;30.25195;954.1158;;;;
2019/06/04 15:58:47;;;;;;;3.4;2.7;;;;;;;32.38;30.10938;954.0421;;;;